createdAt,value
2018-03-22T00:01:32.521Z,47.22
2018-03-22T00:03:59.964Z,47.20
2018-03-22T00:06:27.400Z,46.85
2018-03-22T00:08:55.059Z,46.86
2018-03-22T00:11:22.501Z,47.02
2018-03-22T00:13:50.087Z,46.97
2018-03-22T00:16:17.572Z,46.71
2018-03-22T00:18:45.040Z,46.56
2018-03-22T00:21:12.518Z,46.47
2018-03-22T00:23:39.986Z,46.55
2018-03-22T00:26:07.654Z,46.39
2018-03-22T00:28:35.157Z,46.47
2018-03-22T00:31:03.223Z,46.24
2018-03-22T00:33:30.695Z,46.09
2018-03-22T00:35:58.211Z,45.99
2018-03-22T00:38:25.920Z,45.76
2018-03-22T00:40:53.422Z,45.98
2018-03-22T00:43:20.871Z,45.95
2018-03-22T00:45:48.315Z,46.24
2018-03-22T00:48:16.629Z,46.33
2018-03-22T00:50:44.136Z,46.47
2018-03-22T00:53:11.580Z,47.13
2018-03-22T00:55:39.033Z,47.13
2018-03-22T00:58:06.470Z,46.94
2018-03-22T01:00:34.054Z,47.65
2018-03-22T01:03:01.635Z,47.81
2018-03-22T01:05:33.090Z,48.66
2018-03-22T01:08:00.607Z,48.86
2018-03-22T01:10:28.060Z,49.33
2018-03-22T01:12:55.521Z,49.50
2018-03-22T01:15:22.975Z,48.56
2018-03-22T01:17:50.419Z,48.79
2018-03-22T01:20:17.909Z,48.51
2018-03-22T01:22:45.811Z,48.58
2018-03-22T01:25:13.499Z,49.20
2018-03-22T01:27:40.932Z,49.24
2018-03-22T01:30:21.322Z,49.23
2018-03-22T01:32:49.443Z,49.76
2018-03-22T01:35:18.002Z,50.13
2018-03-22T01:37:48.190Z,50.11
2018-03-22T01:40:16.820Z,49.90
2018-03-22T01:42:44.439Z,50.12
2018-03-22T01:45:12.899Z,49.51
2018-03-22T01:47:40.379Z,48.96
2018-03-22T01:50:07.806Z,49.54
2018-03-22T01:52:35.248Z,49.71
2018-03-22T01:55:02.674Z,49.94
2018-03-22T01:57:30.231Z,49.64
2018-03-22T01:59:57.798Z,49.49
2018-03-22T02:02:25.377Z,49.24
2018-03-22T02:04:53.031Z,49.53
2018-03-22T02:07:20.627Z,49.14
2018-03-22T02:09:48.202Z,49.42
2018-03-22T02:12:16.266Z,49.54
2018-03-22T02:14:43.734Z,49.81
2018-03-22T02:17:11.190Z,50.05
2018-03-22T02:19:38.651Z,50.13
2018-03-22T02:22:06.073Z,50.21
2018-03-22T02:24:33.528Z,50.16
2018-03-22T02:27:01.100Z,50.40
2018-03-22T02:29:28.531Z,51.16
2018-03-22T02:31:56.000Z,51.86
2018-03-22T02:34:23.492Z,51.86
2018-03-22T02:36:50.935Z,50.88
2018-03-22T02:39:18.432Z,50.50
2018-03-22T02:41:45.895Z,51.03
2018-03-22T02:44:13.334Z,51.07
2018-03-22T02:46:40.797Z,51.23
2018-03-22T02:49:08.257Z,52.04
2018-03-22T02:51:35.721Z,51.47
2018-03-22T02:54:03.178Z,51.41
2018-03-22T02:56:31.384Z,51.71
2018-03-22T02:58:58.971Z,51.64
2018-03-22T03:01:26.528Z,51.12
2018-03-22T03:03:54.129Z,51.40
2018-03-22T03:06:21.824Z,51.01
2018-03-22T03:08:49.341Z,51.01
2018-03-22T03:11:16.837Z,51.41
2018-03-22T03:13:44.307Z,51.37
2018-03-22T03:16:12.351Z,51.44
2018-03-22T03:18:39.837Z,51.83
2018-03-22T03:21:08.408Z,51.58
2018-03-22T03:23:35.945Z,51.70
2018-03-22T03:26:03.473Z,52.20
2018-03-22T03:28:31.526Z,51.99
2018-03-22T03:30:59.040Z,52.49
2018-03-22T03:33:26.496Z,52.44
2018-03-22T03:35:54.922Z,52.12
2018-03-22T03:38:22.408Z,51.90
2018-03-22T03:40:49.965Z,52.35
2018-03-22T03:43:17.527Z,52.33
2018-03-22T03:45:45.657Z,52.24
2018-03-22T03:48:13.207Z,51.97
2018-03-22T03:50:40.637Z,51.92
2018-03-22T03:53:08.084Z,52.43
2018-03-22T03:55:36.451Z,52.41
2018-03-22T03:58:03.908Z,52.10
2018-03-22T04:00:31.325Z,52.49
2018-03-22T04:02:58.775Z,53.19
2018-03-22T04:05:26.210Z,52.57
2018-03-22T04:07:53.660Z,52.59
2018-03-22T04:10:21.206Z,52.80
2018-03-22T04:12:48.727Z,53.23
2018-03-22T04:15:16.269Z,53.85
2018-03-22T04:17:44.253Z,53.18
2018-03-22T04:20:11.710Z,53.24
2018-03-22T04:22:39.172Z,53.37
2018-03-22T04:25:07.185Z,53.08
2018-03-22T04:27:34.919Z,52.80
2018-03-22T04:30:02.380Z,53.44
2018-03-22T04:32:29.800Z,53.65
2018-03-22T04:34:57.324Z,53.51
2018-03-22T04:37:24.770Z,53.45
2018-03-22T04:39:52.218Z,53.47
2018-03-22T04:42:19.641Z,53.44
2018-03-22T04:44:47.146Z,53.82
2018-03-22T04:47:15.115Z,53.79
2018-03-22T04:49:42.555Z,53.75
2018-03-22T04:52:10.262Z,53.38
2018-03-22T04:54:37.890Z,53.62
2018-03-22T04:57:05.366Z,54.61
2018-03-22T04:59:32.933Z,54.28
2018-03-22T05:02:00.554Z,53.28
2018-03-22T05:04:27.984Z,53.13
2018-03-22T05:06:55.459Z,54.30
2018-03-22T05:09:22.869Z,53.95
2018-03-22T05:11:50.374Z,54.17
2018-03-22T05:14:17.816Z,54.33
2018-03-22T05:16:45.273Z,54.18
2018-03-22T05:19:12.735Z,54.55
2018-03-22T05:21:40.246Z,54.57
2018-03-22T05:24:07.709Z,54.31
2018-03-22T05:26:35.160Z,52.12
2018-03-22T05:29:02.994Z,51.64
2018-03-22T05:31:30.413Z,51.97
2018-03-22T05:33:57.861Z,52.02
2018-03-22T05:36:25.283Z,53.06
2018-03-22T05:38:52.720Z,52.79
2018-03-22T05:41:20.145Z,51.94
2018-03-22T05:43:47.621Z,51.36
2018-03-22T05:46:15.040Z,51.94
2018-03-22T05:48:42.557Z,52.00
2018-03-22T05:51:10.042Z,52.15
2018-03-22T05:53:37.551Z,51.82
2018-03-22T05:56:05.005Z,50.86
2018-03-22T05:58:32.472Z,50.14
2018-03-22T06:00:59.957Z,49.37
2018-03-22T06:03:27.424Z,49.85
2018-03-22T06:05:54.889Z,50.35
2018-03-22T06:08:22.315Z,51.74
2018-03-22T06:10:49.779Z,51.45
2018-03-22T06:13:17.233Z,50.96
2018-03-22T06:15:44.690Z,50.46
2018-03-22T06:18:12.158Z,50.17
2018-03-22T06:20:39.656Z,49.90
2018-03-22T06:23:07.769Z,49.90
2018-03-22T06:25:35.267Z,50.19
2018-03-22T06:28:02.713Z,49.25
2018-03-22T06:30:30.169Z,48.56
2018-03-22T06:32:57.656Z,46.67
2018-03-22T06:35:25.092Z,44.04
2018-03-22T06:37:52.564Z,44.93
2018-03-22T06:40:20.137Z,45.05
2018-03-22T06:42:47.742Z,43.27
2018-03-22T06:45:15.446Z,40.60
2018-03-22T06:47:42.933Z,39.61
2018-03-22T06:50:10.522Z,38.61
2018-03-22T06:52:38.160Z,37.02
2018-03-22T06:55:05.696Z,37.30
2018-03-22T06:57:33.153Z,38.67
2018-03-22T07:00:00.582Z,40.31
2018-03-22T07:02:28.112Z,40.80
2018-03-22T07:04:55.557Z,40.35
2018-03-22T07:07:23.013Z,42.35
2018-03-22T07:09:50.455Z,42.27
2018-03-22T07:12:17.892Z,41.79
2018-03-22T07:14:45.385Z,42.96
2018-03-22T07:17:12.829Z,43.28
2018-03-22T07:19:40.344Z,43.62
2018-03-22T07:22:07.928Z,43.19
2018-03-22T07:24:35.462Z,43.49
2018-03-22T07:27:02.907Z,43.78
2018-03-22T07:29:30.337Z,44.40
2018-03-22T07:31:57.824Z,44.01
2018-03-22T07:34:25.261Z,43.36
2018-03-22T07:36:53.046Z,43.47
2018-03-22T07:39:20.469Z,42.73
2018-03-22T07:41:48.019Z,42.26
2018-03-22T07:47:16.691Z,41.04
2018-03-22T07:49:44.134Z,40.65
2018-03-22T07:52:11.582Z,40.90
2018-03-22T07:54:39.064Z,40.60
2018-03-22T07:57:06.501Z,40.40
2018-03-22T07:59:33.982Z,40.68
2018-03-22T08:02:01.468Z,39.39
2018-03-22T08:04:28.932Z,39.70
2018-03-22T08:06:56.393Z,39.62
2018-03-22T08:09:23.858Z,39.84
2018-03-22T08:11:51.336Z,38.96
2018-03-22T08:14:18.809Z,37.90
2018-03-22T08:16:46.258Z,38.81
2018-03-22T08:19:13.731Z,38.60
2018-03-22T08:21:41.200Z,37.79
2018-03-22T08:24:08.633Z,36.89
2018-03-22T08:26:36.083Z,35.46
2018-03-22T08:29:03.540Z,36.21
2018-03-22T08:31:31.042Z,36.37
2018-03-22T08:33:58.441Z,35.48
2018-03-22T08:36:25.908Z,35.94
2018-03-22T08:38:53.404Z,36.35
2018-03-22T08:41:21.074Z,37.42
2018-03-22T08:43:48.539Z,37.79
2018-03-22T08:46:15.980Z,38.06
2018-03-22T08:48:43.437Z,37.89
2018-03-22T08:51:10.958Z,38.09
2018-03-22T08:53:38.440Z,38.56
2018-03-22T08:56:05.873Z,37.52
2018-03-22T08:58:33.378Z,37.49
2018-03-22T09:01:00.806Z,37.88
2018-03-22T09:03:28.268Z,37.87
2018-03-22T09:05:55.704Z,36.47
2018-03-22T09:08:23.135Z,37.17
2018-03-22T09:10:50.655Z,37.82
2018-03-22T09:13:18.076Z,37.95
2018-03-22T09:15:45.698Z,37.76
2018-03-22T09:18:13.146Z,37.55
2018-03-22T09:20:41.061Z,37.16
2018-03-22T09:23:08.669Z,35.80
2018-03-22T09:25:36.130Z,35.00
2018-03-22T09:28:03.591Z,33.95
2018-03-22T09:30:31.187Z,32.87
2018-03-22T09:32:58.673Z,32.23
2018-03-22T09:35:26.150Z,32.48
2018-03-22T09:37:53.638Z,31.96
2018-03-22T09:40:21.736Z,30.80
2018-03-22T09:42:49.255Z,31.00
2018-03-22T09:45:17.027Z,32.34
2018-03-22T09:47:44.536Z,32.02
2018-03-22T09:50:12.002Z,32.11
2018-03-22T09:52:39.416Z,31.15
2018-03-22T09:55:06.884Z,30.73
2018-03-22T09:57:34.377Z,31.86
2018-03-22T10:00:01.858Z,32.26
2018-03-22T10:02:29.313Z,32.44
2018-03-22T10:04:56.759Z,32.56
2018-03-22T10:07:24.189Z,33.57
2018-03-22T10:09:51.642Z,33.66
2018-03-22T10:12:19.068Z,31.98
2018-03-22T10:14:46.556Z,33.30
2018-03-22T10:17:14.033Z,32.84
2018-03-22T10:19:41.528Z,31.51
2018-03-22T10:22:08.964Z,30.86
2018-03-22T10:24:36.520Z,31.51
2018-03-22T10:27:04.097Z,31.53
2018-03-22T10:29:32.915Z,30.79
2018-03-22T10:32:00.349Z,32.43
2018-03-22T10:34:27.797Z,32.74
2018-03-22T10:36:55.255Z,32.15
2018-03-22T10:39:22.760Z,32.32
2018-03-22T10:41:50.276Z,32.36
2018-03-22T10:44:17.754Z,32.46
2018-03-22T10:46:45.242Z,31.53
2018-03-22T10:49:12.736Z,31.13
2018-03-22T10:51:40.168Z,30.85
2018-03-22T10:54:07.661Z,31.83
2018-03-22T10:56:35.100Z,30.76
2018-03-22T10:59:02.910Z,29.52
2018-03-22T11:01:35.890Z,28.47
2018-03-22T11:04:07.499Z,28.05
2018-03-22T11:06:35.228Z,29.28
2018-03-22T11:09:02.702Z,28.44
2018-03-22T11:11:30.122Z,28.04
2018-03-22T11:13:57.584Z,28.46
2018-03-22T11:16:25.054Z,28.17
2018-03-22T11:18:52.470Z,29.33
2018-03-22T11:21:19.935Z,29.98
2018-03-22T11:23:47.367Z,29.05
2018-03-22T11:26:14.902Z,30.00
2018-03-22T11:28:42.328Z,29.77
2018-03-22T11:31:09.799Z,29.99
2018-03-22T11:33:37.316Z,29.75
2018-03-22T11:36:04.765Z,28.64
2018-03-22T11:38:32.184Z,30.18
2018-03-22T11:40:59.653Z,31.92
2018-03-22T11:43:27.076Z,32.62
2018-03-22T11:45:54.498Z,33.21
2018-03-22T11:48:21.982Z,33.82
2018-03-22T11:50:49.534Z,34.13
2018-03-22T11:53:16.925Z,34.54
2018-03-22T11:55:44.342Z,34.42
2018-03-22T11:58:11.800Z,33.91
2018-03-22T12:00:39.230Z,35.25
2018-03-22T12:03:06.674Z,36.14
2018-03-22T12:05:34.088Z,37.94
2018-03-22T12:08:01.517Z,37.95
2018-03-22T12:10:28.963Z,36.71
2018-03-22T12:12:56.384Z,37.97
2018-03-22T12:15:23.876Z,39.59
2018-03-22T12:17:51.317Z,38.91
2018-03-22T12:20:18.908Z,39.00
2018-03-22T12:22:46.345Z,39.33
2018-03-22T12:25:13.773Z,39.77
2018-03-22T12:27:41.321Z,39.29
2018-03-22T12:30:08.748Z,39.98
2018-03-22T12:32:36.216Z,41.08
2018-03-22T12:35:03.645Z,40.03
2018-03-22T12:37:31.116Z,40.21
2018-03-22T12:39:58.552Z,40.85
2018-03-22T12:42:26.013Z,41.23
2018-03-22T12:44:53.480Z,41.63
2018-03-22T12:47:20.976Z,41.99
2018-03-22T12:49:48.401Z,41.43
2018-03-22T12:52:15.867Z,44.23
2018-03-22T12:54:43.414Z,44.17
2018-03-22T12:57:10.900Z,44.20
2018-03-22T12:59:38.482Z,44.38
2018-03-22T13:02:05.978Z,44.45
2018-03-22T13:04:33.399Z,44.69
2018-03-22T13:07:00.896Z,45.31
2018-03-22T13:09:28.355Z,47.88
2018-03-22T13:11:55.950Z,50.16
2018-03-22T13:14:23.496Z,52.94
2018-03-22T13:16:51.825Z,52.88
2018-03-22T13:19:19.475Z,53.98
2018-03-22T13:21:46.927Z,53.77
2018-03-22T13:24:14.449Z,54.22
2018-03-22T13:26:41.889Z,53.23
2018-03-22T13:29:09.422Z,54.42
2018-03-22T13:31:37.027Z,54.66
2018-03-22T13:34:04.748Z,55.25
2018-03-22T13:36:32.315Z,56.22
2018-03-22T13:39:00.008Z,57.51
2018-03-22T13:41:27.635Z,56.10
2018-03-22T13:43:55.100Z,56.18
2018-03-22T13:46:22.587Z,56.90
2018-03-22T13:48:50.043Z,55.47
2018-03-22T13:51:17.492Z,56.61
2018-03-22T13:53:45.059Z,57.07
2018-03-22T13:56:12.515Z,56.76
2018-03-22T13:58:40.578Z,57.66
2018-03-22T14:01:08.157Z,58.27
2018-03-22T14:03:35.705Z,60.05
2018-03-22T14:06:03.268Z,58.29
2018-03-22T14:08:30.752Z,57.92
2018-03-22T14:10:58.194Z,58.79
2018-03-22T14:13:25.711Z,58.47
2018-03-22T14:15:53.171Z,58.56
2018-03-22T14:18:20.638Z,57.42
2018-03-22T14:20:48.104Z,57.61
2018-03-22T14:23:15.539Z,58.32
2018-03-22T14:25:43.184Z,58.21
2018-03-22T14:28:10.647Z,58.29
2018-03-22T14:30:38.240Z,57.88
2018-03-22T14:33:05.707Z,57.14
2018-03-22T14:35:33.184Z,57.27
2018-03-22T14:38:00.658Z,58.85
2018-03-22T14:40:28.467Z,58.96
2018-03-22T14:42:56.036Z,59.19
2018-03-22T14:45:23.480Z,59.02
2018-03-22T14:47:50.959Z,58.19
2018-03-22T14:50:18.708Z,57.53
2018-03-22T14:52:46.188Z,58.20
2018-03-22T14:55:13.628Z,57.73
2018-03-22T14:57:41.122Z,57.73
2018-03-22T15:00:09.423Z,57.71
2018-03-22T15:02:36.869Z,56.96
2018-03-22T15:05:04.466Z,56.18
2018-03-22T15:07:31.986Z,55.96
2018-03-22T15:09:59.593Z,55.32
2018-03-22T15:12:27.474Z,54.86
2018-03-22T15:14:54.978Z,54.75
2018-03-22T15:17:22.496Z,54.06
2018-03-22T15:19:49.969Z,54.39
2018-03-22T15:22:17.464Z,53.79
2018-03-22T15:24:44.934Z,54.01
2018-03-22T15:27:12.375Z,53.96
2018-03-22T15:29:39.845Z,53.45
2018-03-22T15:32:07.298Z,52.85
2018-03-22T15:34:34.794Z,53.32
2018-03-22T15:37:02.308Z,54.72
2018-03-22T15:39:29.793Z,55.21
2018-03-22T15:41:57.666Z,56.10
2018-03-22T15:44:25.168Z,55.63
2018-03-22T15:46:52.657Z,55.38
2018-03-22T15:49:20.185Z,56.41
2018-03-22T15:51:47.739Z,57.06
2018-03-22T15:54:15.273Z,57.58
2018-03-22T15:56:42.837Z,58.56
2018-03-22T15:59:10.543Z,60.40
2018-03-22T16:01:38.120Z,60.60
2018-03-22T16:04:05.633Z,62.84
2018-03-22T16:06:33.209Z,63.06
2018-03-22T16:09:00.671Z,63.74
2018-03-22T16:11:28.132Z,64.03
2018-03-22T16:13:55.578Z,65.25
2018-03-22T16:16:23.034Z,66.43
2018-03-22T16:18:50.858Z,66.83
2018-03-22T16:21:18.348Z,67.81
2018-03-22T16:23:45.782Z,68.46
2018-03-22T16:26:13.242Z,68.79
2018-03-22T16:28:41.723Z,68.24
2018-03-22T16:31:09.299Z,67.72
2018-03-22T16:33:36.775Z,68.05
2018-03-22T16:36:04.298Z,67.49
2018-03-22T16:38:31.794Z,67.84
2018-03-22T16:40:59.273Z,67.52
2018-03-22T16:43:26.734Z,67.20
2018-03-22T16:45:54.192Z,68.01
2018-03-22T16:48:21.686Z,67.98
2018-03-22T16:50:49.114Z,67.80
2018-03-22T16:53:16.586Z,68.85
2018-03-22T16:55:44.117Z,70.15
2018-03-22T16:58:11.606Z,70.55
2018-03-22T17:00:39.239Z,70.86
2018-03-22T17:03:06.840Z,70.55
2018-03-22T17:05:34.381Z,69.85
2018-03-22T17:08:01.909Z,70.52
2018-03-22T17:10:29.427Z,70.52
2018-03-22T17:12:57.588Z,71.16
2018-03-22T17:15:25.217Z,72.91
2018-03-22T17:17:52.668Z,72.61
2018-03-22T17:20:20.194Z,72.51
